Impacts METAR Board INFO
IDs:

KTPA - Tampa Intl Arpt, FL, US

Updated at: 1115 UTC 11 Dec 2017
Potential Impact None Slight Moderate High
Time10/23Z 11/00Z 11/01Z 11/02Z 11/03Z 11/04Z 11/05Z 11/06Z 11/07Z 11/08Z 11/09Z 11/10Z 11/11Z
VIS10 10 10 10 10 10 10 10 10 10 10 10 10
CIG-- -- -- -- -- -- -- -- -- -- -- -- --
CoverCLRCLRCLRCLRCLRCLRCLRCLRCLRCLRCLRCLRFEW
FltCatVFRVFRVFRVFRVFRVFRVFRVFRVFRVFRVFRVFRVFR
WX--------------------------
WDir3200400000000605030
WSpd6 0 3 0 0 0 0 0 0 0 4 3 4
WGst-- -- -- -- -- -- -- -- -- -- -- -- --
Raw hourly METARs
KTPA 102253Z 32006KT 10SM CLR 11/01 A3030 RMK AO2 SLP260 T01060006
KTPA 102353Z 00000KT 10SM CLR 10/02 A3031 RMK AO2 SLP264 T01000022 10156 20100 51011
KTPA 110053Z 04003KT 10SM CLR 10/02 A3032 RMK AO2 SLP267 T01000022
KTPA 110153Z 00000KT 10SM CLR 10/03 A3033 RMK AO2 SLP271 T01000028
KTPA 110253Z 00000KT 10SM CLR 09/03 A3033 RMK AO2 SLP271 T00940028 51007
KTPA 110353Z 00000KT 10SM CLR 09/03 A3033 RMK AO2 SLP271 T00940028
KTPA 110453Z 00000KT 10SM CLR 09/03 A3032 RMK AO2 SLP268 T00890028 401560061
KTPA 110553Z 00000KT 10SM CLR 09/03 A3031 RMK AO2 SLP265 T00890033 10106 20083 58006
KTPA 110653Z 00000KT 10SM CLR 07/03 A3030 RMK AO2 SLP261 T00720028
KTPA 110753Z 00000KT 10SM CLR 07/04 A3030 RMK AO2 SLP260 T00720044
KTPA 110853Z 06004KT 10SM CLR 08/03 A3030 RMK AO2 SLP260 T00780028 55004
KTPA 110953Z 05003KT 10SM CLR 08/02 A3030 RMK AO2 SLP260 T00780022
KTPA 111053Z 03004KT 10SM FEW250 07/02 A3030 RMK AO2 SLP260 T00720017